createdAt,value
2023-01-01T00:02:07.612Z,74.88
2023-01-01T00:04:40.499Z,65.30
2023-01-01T00:07:13.217Z,67.43
2023-01-01T00:10:03.645Z,62.13
2023-01-01T00:12:36.759Z,58.17
2023-01-01T00:15:11.448Z,49.10
2023-01-01T00:17:44.471Z,49.10
2023-01-01T00:22:54.888Z,46.35
2023-01-01T00:25:29.068Z,56.58
2023-01-01T00:28:02.980Z,49.42
2023-01-01T00:30:41.026Z,55.10
2023-01-01T00:33:14.170Z,47.03
2023-01-01T00:38:19.790Z,38.85
2023-01-01T00:40:52.648Z,36.63
2023-01-01T00:43:25.582Z,48.80
2023-01-01T00:45:59.830Z,106.05
2023-01-01T00:48:33.178Z,77.03
2023-01-01T00:51:07.462Z,82.85
2023-01-01T00:53:40.619Z,107.47
2023-01-01T00:56:13.748Z,77.68
2023-01-01T00:59:00.468Z,68.82
2023-01-01T01:01:36.001Z,50.42
2023-01-01T01:04:09.392Z,49.03
2023-01-01T01:06:42.362Z,29.52
2023-01-01T01:11:48.042Z,49.30
2023-01-01T01:16:55.115Z,57.45
2023-01-01T01:19:27.934Z,59.67
2023-01-01T01:22:00.718Z,70.68
2023-01-01T01:24:33.453Z,55.97
2023-01-01T01:27:06.308Z,55.15
2023-01-01T01:29:39.214Z,46.35
2023-01-01T01:32:14.048Z,42.53
2023-01-01T01:34:46.815Z,43.85
2023-01-01T01:37:20.358Z,28.40
2023-01-01T01:39:54.132Z,33.03
2023-01-01T01:42:27.198Z,32.33
2023-01-01T01:45:02.754Z,22.95
2023-01-01T01:47:42.116Z,19.73
2023-01-01T01:50:21.173Z,21.27
2023-01-01T01:53:03.934Z,24.67
2023-01-01T01:55:39.117Z,19.80
2023-01-01T01:58:14.649Z,18.20
2023-01-01T02:00:48.949Z,18.23
2023-01-01T02:03:28.657Z,32.20
2023-01-01T02:06:02.752Z,22.80
2023-01-01T02:08:39.528Z,14.60
2023-01-01T02:11:20.138Z,18.70
2023-01-01T02:13:56.571Z,15.52
2023-01-01T02:16:38.633Z,14.25
2023-01-01T02:19:28.553Z,20.85
2023-01-01T02:22:18.152Z,16.67
2023-01-01T02:25:05.926Z,18.42
2023-01-01T02:27:52.547Z,19.40
2023-01-01T02:30:29.020Z,17.00
2023-01-01T02:33:05.957Z,18.02
2023-01-01T02:35:42.731Z,16.33
2023-01-01T02:38:20.548Z,15.27
2023-01-01T02:40:59.013Z,20.33
2023-01-01T02:43:32.275Z,15.18
2023-01-01T02:46:09.881Z,14.18
2023-01-01T02:48:47.107Z,17.65
2023-01-01T02:51:35.328Z,18.45
2023-01-01T02:54:13.937Z,15.10
2023-01-01T02:56:53.825Z,9.55
2023-01-01T02:59:51.989Z,11.52
2023-01-01T03:02:37.563Z,16.27
2023-01-01T03:05:22.128Z,21.25
2023-01-01T03:08:05.499Z,19.48
2023-01-01T03:10:45.292Z,17.38
2023-01-01T03:13:25.074Z,22.33
2023-01-01T03:16:01.701Z,18.13
2023-01-01T03:18:44.232Z,18.75
2023-01-01T03:21:23.025Z,9.05
2023-01-01T03:23:57.246Z,13.98
2023-01-01T03:26:34.881Z,12.30
2023-01-01T03:29:12.685Z,17.50
2023-01-01T03:31:48.703Z,11.90
2023-01-01T03:34:29.132Z,18.42
2023-01-01T03:37:06.612Z,11.35
2023-01-01T03:39:44.349Z,11.38
2023-01-01T03:42:27.200Z,12.68
2023-01-01T03:45:05.133Z,11.73
2023-01-01T03:47:38.714Z,11.07
2023-01-01T03:50:14.845Z,10.70
2023-01-01T03:52:55.754Z,12.40
2023-01-01T03:55:34.170Z,11.75
2023-01-01T03:58:15.170Z,6.30
2023-01-01T04:00:53.096Z,10.23
2023-01-01T04:03:28.639Z,8.35
2023-01-01T04:06:04.186Z,11.77
2023-01-01T04:08:37.756Z,11.27
2023-01-01T04:11:35.572Z,14.68
2023-01-01T04:14:09.818Z,15.68
2023-01-01T04:16:43.175Z,12.13
2023-01-01T04:19:16.309Z,17.15
2023-01-01T04:21:50.516Z,10.73
2023-01-01T04:24:23.969Z,11.85
2023-01-01T04:26:57.162Z,11.40
2023-01-01T04:29:29.952Z,23.85
2023-01-01T04:32:02.783Z,22.27
2023-01-01T04:34:35.675Z,18.10
2023-01-01T04:37:13.479Z,17.05
2023-01-01T04:39:46.782Z,16.45
2023-01-01T04:44:52.621Z,17.35
2023-01-01T04:49:59.759Z,16.60
2023-01-01T04:52:34.250Z,15.85
2023-01-01T04:55:08.261Z,15.77
2023-01-01T04:57:42.551Z,9.07
2023-01-01T05:00:16.178Z,14.40
2023-01-01T05:02:49.206Z,15.25
2023-01-01T05:07:57.848Z,13.70
2023-01-01T05:10:30.903Z,8.82
2023-01-01T05:13:08.060Z,16.10
2023-01-01T05:15:41.093Z,16.60
2023-01-01T05:18:14.185Z,17.08
2023-01-01T05:23:21.797Z,16.95
2023-01-01T05:25:54.889Z,14.25
2023-01-01T05:31:01.014Z,14.10
2023-01-01T05:33:34.299Z,19.27
2023-01-01T05:38:43.554Z,16.80
2023-01-01T05:41:18.352Z,20.45
2023-01-01T05:43:52.341Z,22.55
2023-01-01T05:46:26.409Z,16.15
2023-01-01T05:48:59.259Z,21.95
2023-01-01T05:56:41.505Z,16.60
2023-01-01T05:59:14.675Z,20.98
2023-01-01T06:01:47.625Z,29.73
2023-01-01T06:06:55.271Z,17.50
2023-01-01T06:12:02.215Z,21.60
2023-01-01T06:14:35.046Z,18.58
2023-01-01T06:17:10.442Z,19.13
2023-01-01T06:19:43.398Z,22.88
2023-01-01T06:22:16.252Z,19.40
2023-01-01T06:24:50.415Z,23.20
2023-01-01T06:27:23.265Z,21.88
2023-01-01T06:30:00.264Z,13.18
2023-01-01T06:32:33.628Z,14.25
2023-01-01T06:35:07.498Z,22.02
2023-01-01T06:37:40.626Z,16.60
2023-01-01T06:40:15.605Z,19.25
2023-01-01T06:42:50.730Z,25.33
2023-01-01T06:45:24.374Z,17.00
2023-01-01T06:47:58.281Z,17.23
2023-01-01T06:50:31.775Z,24.50
2023-01-01T06:53:04.555Z,22.13
2023-01-01T06:58:12.567Z,18.60
2023-01-01T07:00:45.568Z,21.27
2023-01-01T07:03:18.487Z,20.05
2023-01-01T07:05:51.220Z,17.27
2023-01-01T07:08:23.961Z,26.25
2023-01-01T07:10:58.134Z,23.63
2023-01-01T07:13:32.029Z,22.10
2023-01-01T07:16:12.353Z,15.57
2023-01-01T07:18:46.131Z,17.10
2023-01-01T07:24:05.097Z,14.77
2023-01-01T07:26:40.102Z,15.88
2023-01-01T07:29:13.952Z,14.10
2023-01-01T07:31:46.925Z,14.20
2023-01-01T07:34:20.176Z,16.02
2023-01-01T07:36:53.250Z,15.80
2023-01-01T07:39:26.158Z,22.23
2023-01-01T07:42:00.872Z,17.00
2023-01-01T07:44:35.590Z,13.60
2023-01-01T07:47:20.425Z,11.95
2023-01-01T07:49:53.541Z,14.32
2023-01-01T07:52:26.396Z,15.52
2023-01-01T07:55:00.009Z,15.90
2023-01-01T07:57:34.286Z,18.15
2023-01-01T08:00:08.665Z,16.17
2023-01-01T08:02:46.096Z,18.42
2023-01-01T08:05:24.386Z,19.17
2023-01-01T08:07:59.497Z,17.70
2023-01-01T08:10:32.786Z,13.13
2023-01-01T08:13:09.181Z,16.20
2023-01-01T08:15:42.092Z,22.17
2023-01-01T08:18:14.956Z,20.23
2023-01-01T08:20:47.755Z,20.45
2023-01-01T08:23:20.901Z,25.13
2023-01-01T08:28:27.557Z,12.95
2023-01-01T08:31:00.565Z,17.63
2023-01-01T08:33:35.175Z,16.80
2023-01-01T08:36:10.618Z,12.52
2023-01-01T08:38:43.862Z,19.33
2023-01-01T08:41:16.733Z,24.30
2023-01-01T08:46:23.779Z,19.70
2023-01-01T08:48:57.026Z,19.27
2023-01-01T08:51:29.787Z,19.10
2023-01-01T08:54:02.778Z,13.77
2023-01-01T08:56:35.478Z,15.00
2023-01-01T08:59:09.550Z,22.77
2023-01-01T09:01:42.753Z,15.63
2023-01-01T09:04:17.361Z,13.98
2023-01-01T09:06:50.000Z,17.90
2023-01-01T09:09:29.153Z,13.30
2023-01-01T09:12:06.484Z,20.98
2023-01-01T09:14:40.634Z,19.00
2023-01-01T09:17:13.386Z,18.83
2023-01-01T09:19:46.324Z,15.90
2023-01-01T09:22:19.128Z,17.92
2023-01-01T09:24:51.790Z,14.30
2023-01-01T09:27:24.508Z,15.73
2023-01-01T09:29:59.866Z,13.55
2023-01-01T09:32:33.204Z,17.58
2023-01-01T09:35:07.019Z,20.23
2023-01-01T09:37:40.162Z,23.23
2023-01-01T09:40:27.472Z,21.40
2023-01-01T09:43:14.549Z,13.32
2023-01-01T09:45:57.643Z,14.98
2023-01-01T09:48:32.664Z,18.83
2023-01-01T09:51:11.259Z,12.02
2023-01-01T09:53:49.895Z,17.20
2023-01-01T09:56:26.955Z,23.98
2023-01-01T09:58:59.950Z,16.00
2023-01-01T10:01:45.059Z,16.92
2023-01-01T10:04:35.637Z,15.55
2023-01-01T10:07:18.850Z,12.38
2023-01-01T10:12:37.571Z,18.08
2023-01-01T10:15:16.872Z,26.45
2023-01-01T10:17:54.449Z,29.90
2023-01-01T10:20:33.167Z,27.58
2023-01-01T10:23:17.222Z,31.77
2023-01-01T10:25:50.043Z,40.88
2023-01-01T10:28:28.206Z,25.63
2023-01-01T10:31:16.563Z,30.60
2023-01-01T10:33:50.731Z,26.73
2023-01-01T10:36:23.585Z,23.33
2023-01-01T10:38:56.339Z,24.95
2023-01-01T10:41:29.315Z,24.13
2023-01-01T10:46:38.220Z,18.63
2023-01-01T10:49:16.132Z,23.27
2023-01-01T10:51:51.066Z,18.63
2023-01-01T10:54:35.779Z,17.05
2023-01-01T10:57:16.959Z,21.48
2023-01-01T10:59:54.174Z,22.08
2023-01-01T11:02:29.216Z,16.70
2023-01-01T11:05:21.390Z,22.33
2023-01-01T11:07:54.549Z,15.50
2023-01-01T11:10:29.186Z,19.23
2023-01-01T11:13:05.300Z,24.40
2023-01-01T11:15:42.349Z,22.55
2023-01-01T11:18:16.855Z,20.63
2023-01-01T11:20:55.590Z,20.17
2023-01-01T11:23:34.145Z,19.67
2023-01-01T11:26:19.964Z,18.10
2023-01-01T11:29:01.343Z,15.68
2023-01-01T11:31:38.409Z,15.27
2023-01-01T11:34:32.111Z,20.05
2023-01-01T11:37:29.676Z,13.02
2023-01-01T11:40:03.964Z,14.45
2023-01-01T11:42:38.239Z,24.00
2023-01-01T11:45:20.001Z,20.27
2023-01-01T11:47:56.756Z,23.70
2023-01-01T11:50:33.561Z,14.50
2023-01-01T11:53:28.385Z,15.75
2023-01-01T11:56:08.951Z,24.67
2023-01-01T11:58:50.173Z,19.88
2023-01-01T12:01:29.184Z,18.40
2023-01-01T12:04:09.130Z,15.57
2023-01-01T12:06:47.536Z,16.27
2023-01-01T12:09:25.895Z,18.17
2023-01-01T12:12:05.174Z,17.13
2023-01-01T12:14:43.464Z,19.88
2023-01-01T12:17:21.858Z,15.18
2023-01-01T12:20:01.956Z,16.95
2023-01-01T12:22:34.744Z,13.93
2023-01-01T12:25:13.343Z,16.48
2023-01-01T12:28:01.983Z,17.50
2023-01-01T12:30:41.887Z,12.90
2023-01-01T12:33:26.416Z,19.83
2023-01-01T12:36:11.304Z,15.98
2023-01-01T12:39:10.194Z,22.80
2023-01-01T12:41:53.594Z,16.58
2023-01-01T12:47:15.601Z,23.67
2023-01-01T12:50:04.614Z,18.80
2023-01-01T12:52:49.569Z,17.63
2023-01-01T12:55:37.363Z,20.63
2023-01-01T12:58:15.641Z,20.05
2023-01-01T13:00:55.726Z,14.20
2023-01-01T13:03:34.311Z,19.85
2023-01-01T13:06:09.402Z,16.92
2023-01-01T13:08:43.172Z,16.05
2023-01-01T13:11:16.283Z,20.27
2023-01-01T13:13:50.515Z,12.02
2023-01-01T13:16:37.888Z,18.83
2023-01-01T13:19:26.664Z,15.48
2023-01-01T13:22:00.008Z,18.05
2023-01-01T13:24:32.929Z,17.50
2023-01-01T13:29:49.646Z,19.38
2023-01-01T13:32:22.285Z,20.42
2023-01-01T13:35:04.163Z,22.10
2023-01-01T13:37:45.713Z,16.25
2023-01-01T13:40:50.717Z,19.95
2023-01-01T13:43:32.713Z,17.13
2023-01-01T13:46:12.328Z,24.20
2023-01-01T13:49:14.403Z,17.13
2023-01-01T13:52:16.928Z,16.73
2023-01-01T13:55:29.468Z,15.75
2023-01-01T13:58:44.105Z,19.65
2023-01-01T14:01:35.358Z,23.98
2023-01-01T14:04:21.031Z,18.80
2023-01-01T14:06:56.168Z,21.15
2023-01-01T14:09:29.007Z,19.23
2023-01-01T14:12:10.325Z,15.77
2023-01-01T14:14:43.345Z,16.08
2023-01-01T14:19:51.486Z,16.92
2023-01-01T14:22:24.431Z,11.52
2023-01-01T14:27:31.155Z,16.50
2023-01-01T14:30:04.515Z,18.55
2023-01-01T14:32:38.530Z,18.15
2023-01-01T14:35:17.104Z,26.48
2023-01-01T14:37:51.508Z,13.43
2023-01-01T14:40:29.848Z,17.70
2023-01-01T14:43:07.738Z,13.60
2023-01-01T14:45:44.319Z,16.67
2023-01-01T14:48:20.924Z,10.93
2023-01-01T14:50:54.378Z,12.52
2023-01-01T14:53:33.008Z,21.13
2023-01-01T14:56:07.176Z,17.08
2023-01-01T14:58:41.837Z,27.08
2023-01-01T15:01:15.306Z,23.02
2023-01-01T15:04:02.050Z,16.33
2023-01-01T15:06:41.176Z,14.60
2023-01-01T15:09:17.026Z,13.57
2023-01-01T15:11:53.437Z,16.27
2023-01-01T15:14:32.039Z,17.45
2023-01-01T15:17:07.704Z,15.05
2023-01-01T15:19:44.615Z,16.42
2023-01-01T15:22:25.915Z,21.02
2023-01-01T15:25:00.748Z,16.30
2023-01-01T15:27:36.186Z,13.77
2023-01-01T15:30:27.024Z,15.10
2023-01-01T15:33:08.665Z,18.52
2023-01-01T15:35:48.813Z,20.25
2023-01-01T15:38:25.264Z,19.77
2023-01-01T15:40:58.494Z,16.10
2023-01-01T15:43:38.205Z,27.98
2023-01-01T15:46:22.172Z,17.73
2023-01-01T15:48:57.064Z,14.93
2023-01-01T15:51:32.021Z,19.58
2023-01-01T15:54:06.173Z,21.75
2023-01-01T15:56:41.876Z,13.77
2023-01-01T15:59:25.731Z,16.50
2023-01-01T16:02:13.166Z,30.58
2023-01-01T16:04:47.365Z,16.17
2023-01-01T16:07:24.410Z,14.25
2023-01-01T16:09:58.304Z,17.50
2023-01-01T16:12:31.378Z,22.23
2023-01-01T16:17:37.138Z,13.80
2023-01-01T16:20:15.609Z,11.88
2023-01-01T16:22:49.916Z,17.73
2023-01-01T16:25:23.952Z,20.77
2023-01-01T16:27:56.701Z,13.73
2023-01-01T16:30:31.368Z,14.00
2023-01-01T16:33:05.407Z,12.05
2023-01-01T16:35:40.051Z,18.20
2023-01-01T16:38:14.266Z,16.90
2023-01-01T16:40:47.124Z,19.75
2023-01-01T16:43:20.074Z,18.85
2023-01-01T16:45:53.102Z,17.15
2023-01-01T16:48:25.995Z,16.67
2023-01-01T16:50:58.698Z,21.70
2023-01-01T16:53:33.450Z,16.55
2023-01-01T16:56:09.066Z,12.68
2023-01-01T16:58:52.150Z,15.57
2023-01-01T17:01:26.120Z,17.50
2023-01-01T17:06:31.803Z,15.80
2023-01-01T17:11:40.422Z,19.90
2023-01-01T17:14:13.710Z,12.85
2023-01-01T17:16:46.694Z,14.15
2023-01-01T17:21:52.486Z,8.63
2023-01-01T17:27:00.155Z,12.35
2023-01-01T17:29:33.091Z,15.23
2023-01-01T17:34:39.051Z,16.40
2023-01-01T17:39:45.770Z,14.30
2023-01-01T17:42:18.565Z,13.75
2023-01-01T17:44:51.571Z,13.77
2023-01-01T17:47:30.766Z,13.77
2023-01-01T17:50:06.655Z,17.05
2023-01-01T17:52:42.239Z,12.82
2023-01-01T17:55:16.548Z,15.27
2023-01-01T17:57:49.554Z,18.60
2023-01-01T18:02:58.009Z,13.88
2023-01-01T18:08:03.838Z,15.52
2023-01-01T18:10:38.547Z,10.90
2023-01-01T18:13:11.543Z,18.67
2023-01-01T18:15:46.969Z,14.15
2023-01-01T18:18:20.385Z,14.40
2023-01-01T18:20:56.172Z,18.92
2023-01-01T18:23:33.039Z,17.10
2023-01-01T18:26:09.128Z,11.73
2023-01-01T18:28:42.466Z,11.73
2023-01-01T18:31:19.434Z,10.18
2023-01-01T18:33:52.532Z,16.08
2023-01-01T18:39:07.984Z,16.48
2023-01-01T18:41:58.716Z,10.27
2023-01-01T18:44:33.376Z,14.25
2023-01-01T18:47:14.640Z,12.07
2023-01-01T18:49:51.184Z,12.20
2023-01-01T18:52:25.403Z,12.18
2023-01-01T18:55:04.433Z,13.25
2023-01-01T18:57:39.576Z,11.57
2023-01-01T19:00:19.388Z,11.73
2023-01-01T19:02:57.998Z,13.68
2023-01-01T19:05:32.596Z,11.82
2023-01-01T19:08:15.674Z,12.57
2023-01-01T19:10:50.650Z,9.35
2023-01-01T19:13:29.337Z,10.13
2023-01-01T19:16:10.458Z,20.45
2023-01-01T19:18:45.083Z,18.52
2023-01-01T19:21:24.807Z,11.65
2023-01-01T19:24:03.040Z,12.35
2023-01-01T19:26:42.361Z,12.68
2023-01-01T19:29:19.618Z,11.43
2023-01-01T19:31:56.780Z,7.43
2023-01-01T19:34:31.223Z,12.35
2023-01-01T19:37:05.286Z,10.95
2023-01-01T19:39:39.441Z,9.70
2023-01-01T19:44:46.788Z,12.52
2023-01-01T19:47:19.803Z,13.05
2023-01-01T19:52:28.953Z,8.88
2023-01-01T19:55:05.373Z,7.82
2023-01-01T19:57:38.228Z,11.23
2023-01-01T20:00:13.632Z,11.23
2023-01-01T20:02:47.912Z,11.82
2023-01-01T20:05:24.154Z,10.63
2023-01-01T20:07:56.989Z,12.93
2023-01-01T20:10:31.606Z,8.48
2023-01-01T20:13:04.767Z,8.63
2023-01-01T20:15:46.458Z,10.10
2023-01-01T20:18:20.063Z,8.27
2023-01-01T20:21:10.931Z,12.30
2023-01-01T20:23:43.732Z,12.95
2023-01-01T20:26:18.469Z,8.52
2023-01-01T20:29:08.899Z,7.82
2023-01-01T20:31:43.895Z,10.57
2023-01-01T20:34:18.807Z,7.90
2023-01-01T20:37:09.899Z,11.75
2023-01-01T20:39:44.054Z,10.43
2023-01-01T20:42:16.850Z,9.55
2023-01-01T20:44:50.842Z,9.38
2023-01-01T20:49:57.985Z,10.30
2023-01-01T20:55:03.499Z,8.07
2023-01-01T20:57:37.604Z,9.02
2023-01-01T21:00:15.011Z,10.65
2023-01-01T21:02:49.529Z,10.63
2023-01-01T21:05:22.391Z,12.27
2023-01-01T21:07:55.330Z,12.65
2023-01-01T21:10:28.931Z,8.32
2023-01-01T21:13:02.513Z,7.50
2023-01-01T21:15:35.618Z,7.60
2023-01-01T21:18:13.475Z,10.23
2023-01-01T21:20:50.264Z,8.95
2023-01-01T21:23:29.015Z,10.55
2023-01-01T21:26:02.597Z,9.35
2023-01-01T21:28:35.600Z,12.40
2023-01-01T21:31:13.640Z,11.57
2023-01-01T21:33:47.961Z,6.30
2023-01-01T21:36:23.906Z,12.82
2023-01-01T21:39:12.915Z,11.05
2023-01-01T21:41:45.751Z,8.88
2023-01-01T21:44:18.783Z,8.23
2023-01-01T21:49:37.355Z,9.88
2023-01-01T21:52:19.222Z,7.97
2023-01-01T21:54:53.348Z,10.00
2023-01-01T21:57:26.777Z,9.10
2023-01-01T22:00:01.471Z,12.38
2023-01-01T22:02:46.487Z,9.30
2023-01-01T22:05:31.057Z,10.20
2023-01-01T22:08:23.371Z,10.57
2023-01-01T22:10:58.587Z,12.10
2023-01-01T22:13:31.479Z,8.90
2023-01-01T22:16:04.483Z,9.43
2023-01-01T22:21:18.144Z,9.00
2023-01-01T22:23:55.812Z,9.85
2023-01-01T22:26:31.190Z,8.45
2023-01-01T22:29:09.462Z,11.90
2023-01-01T22:31:48.744Z,8.68
2023-01-01T22:34:23.634Z,14.10
2023-01-01T22:36:58.014Z,16.27
2023-01-01T22:39:35.981Z,12.40
2023-01-01T22:42:12.949Z,12.15
2023-01-01T22:44:48.853Z,15.15
2023-01-01T22:47:21.830Z,13.77
2023-01-01T22:52:30.580Z,13.10
2023-01-01T22:55:03.326Z,13.38
2023-01-01T22:57:36.303Z,12.63
2023-01-01T23:02:42.618Z,13.05
2023-01-01T23:07:49.822Z,17.20
2023-01-01T23:10:23.142Z,15.18
2023-01-01T23:12:55.934Z,14.18
2023-01-01T23:15:49.671Z,13.40
2023-01-01T23:18:25.255Z,17.48
2023-01-01T23:20:58.827Z,14.82
2023-01-01T23:23:33.497Z,17.38
2023-01-01T23:26:08.249Z,16.40
2023-01-01T23:28:41.145Z,15.43
2023-01-01T23:31:24.519Z,14.32
2023-01-01T23:33:59.369Z,13.07
2023-01-01T23:36:32.897Z,13.75
2023-01-01T23:39:07.185Z,17.98
2023-01-01T23:41:40.191Z,15.80
2023-01-01T23:44:13.122Z,17.88
2023-01-01T23:46:46.643Z,14.80
2023-01-01T23:49:20.113Z,14.52
2023-01-01T23:51:53.803Z,15.15
2023-01-01T23:54:28.130Z,10.48
2023-01-01T23:57:01.098Z,16.85
2023-01-01T23:59:34.055Z,16.75
